Time;durP1;ratioP1;P1;durP2;ratioP2;P2;SDS_P1;SDS_P2;PMS_P1;PMS_P2;Temp;Humidity;BMP_temperature;BMP_pressure;BME280_temperature;BME280_humidity;BME280_pressure;Samples;Min_cycle;Max_cycle;Signal;HPM_P1;HPM_P2
2020/12/08 00:00:53;;;;;;;12.13;4.28;;;3.00;99.90;;;;;;10493116;28;20078;-54
2020/12/08 00:06:14;;;;;;;11.15;2.40;;;3.00;99.90;;;;;;10492486;28;20143;-55
2020/12/08 00:11:35;;;;;;;9.95;4.40;;;3.00;99.90;;;;;;10497353;28;20168;-55
2020/12/08 00:16:56;;;;;;;15.52;4.85;;;2.90;99.90;;;;;;10497937;28;20040;-54
2020/12/08 00:22:17;;;;;;;13.43;5.53;;;2.90;99.90;;;;;;10493605;28;20040;-54
2020/12/08 00:27:39;;;;;;;5.47;2.10;;;3.00;99.90;;;;;;10489058;28;20036;-54
2020/12/08 00:33:00;;;;;;;14.30;4.00;;;2.90;99.90;;;;;;10500742;28;20174;-54
2020/12/08 00:38:21;;;;;;;11.07;4.20;;;2.90;99.90;;;;;;10493964;28;20123;-54
2020/12/08 00:43:42;;;;;;;11.38;2.92;;;2.90;99.90;;;;;;10493447;28;20052;-54
2020/12/08 00:49:05;;;;;;;13.68;3.92;;;2.80;99.90;;;;;;10491713;28;20028;-54
2020/12/08 00:54:25;;;;;;;17.45;4.28;;;2.70;99.90;;;;;;10494065;28;20097;-54
2020/12/08 00:59:47;;;;;;;15.55;4.88;;;2.70;99.90;;;;;;10486852;28;20044;-54
2020/12/08 01:05:11;;;;;;;12.25;4.72;;;2.70;99.90;;;;;;10476088;28;20053;-55
2020/12/08 01:10:32;;;;;;;17.35;6.50;;;2.80;99.90;;;;;;10480533;28;20052;-54
2020/12/08 01:15:53;;;;;;;18.20;4.72;;;2.70;99.90;;;;;;10470791;28;20032;-53
2020/12/08 01:21:17;;;;;;;13.85;3.60;;;2.50;99.90;;;;;;10488818;28;20040;-54
2020/12/08 01:26:37;;;;;;;12.77;4.75;;;2.70;99.90;;;;;;10456277;28;20036;-54
2020/12/08 01:31:58;;;;;;;12.70;4.30;;;2.50;99.90;;;;;;10488163;28;20040;-54
2020/12/08 01:37:19;;;;;;;12.43;4.40;;;2.60;99.90;;;;;;10475787;28;20051;-54
2020/12/08 01:42:40;;;;;;;14.55;4.70;;;2.50;99.90;;;;;;10476455;28;20531;-54
2020/12/08 01:48:02;;;;;;;12.02;3.85;;;2.50;99.90;;;;;;10446850;28;20048;-54
2020/12/08 01:53:23;;;;;;;15.55;4.78;;;2.60;99.90;;;;;;10472790;28;20032;-54
2020/12/08 01:58:45;;;;;;;13.93;5.10;;;2.60;99.90;;;;;;10452022;28;20090;-53
2020/12/08 02:04:06;;;;;;;14.85;5.28;;;2.50;99.90;;;;;;10477866;28;20043;-54
2020/12/08 02:09:27;;;;;;;9.70;3.63;;;2.50;99.90;;;;;;10468217;28;20027;-54
2020/12/08 02:14:48;;;;;;;16.25;4.15;;;2.60;99.90;;;;;;10491312;28;20040;-54
2020/12/08 02:20:09;;;;;;;17.77;4.50;;;2.80;99.90;;;;;;10485839;28;20130;-54
2020/12/08 02:25:30;;;;;;;11.45;3.47;;;2.90;99.90;;;;;;10474724;28;20043;-54
2020/12/08 02:30:51;;;;;;;13.68;5.68;;;3.00;99.90;;;;;;10483104;28;20106;-54
2020/12/08 02:36:12;;;;;;;17.20;5.03;;;3.00;99.90;;;;;;10472021;28;20111;-54
2020/12/08 02:41:33;;;;;;;11.98;3.92;;;3.00;99.90;;;;;;10469288;28;20055;-54
2020/12/08 02:46:54;;;;;;;11.75;3.80;;;3.00;99.90;;;;;;10460928;28;20551;-54
2020/12/08 02:52:15;;;;;;;17.42;4.55;;;2.80;99.90;;;;;;10473047;28;20089;-54
2020/12/08 02:57:36;;;;;;;14.90;4.38;;;2.80;99.90;;;;;;10472494;28;20691;-54
2020/12/08 03:02:57;;;;;;;11.95;4.03;;;2.70;99.90;;;;;;10474874;28;20048;-54
2020/12/08 03:08:18;;;;;;;10.32;3.97;;;2.70;99.90;;;;;;10473813;28;24896;-54
2020/12/08 03:13:39;;;;;;;12.77;3.58;;;2.60;99.90;;;;;;10486006;28;20051;-54
2020/12/08 03:19:00;;;;;;;11.13;3.67;;;2.50;99.90;;;;;;10457491;28;20163;-54
2020/12/08 03:24:21;;;;;;;17.77;4.22;;;2.50;99.90;;;;;;10486183;28;20043;-54
2020/12/08 03:29:42;;;;;;;15.57;4.30;;;2.40;99.90;;;;;;10468127;28;20036;-54
2020/12/08 03:35:03;;;;;;;10.73;3.72;;;2.40;99.90;;;;;;10477346;28;20271;-54
2020/12/08 03:40:24;;;;;;;15.65;4.43;;;2.40;99.90;;;;;;10486274;28;20045;-54
2020/12/08 03:45:45;;;;;;;7.50;3.08;;;2.40;99.90;;;;;;10478613;28;20047;-54
2020/12/08 03:51:10;;;;;;;8.55;4.22;;;2.40;99.90;;;;;;10491423;28;20107;-54
2020/12/08 03:56:31;;;;;;;16.30;4.45;;;2.40;99.90;;;;;;10489813;28;20040;-54
2020/12/08 04:01:52;;;;;;;9.65;3.08;;;2.40;99.90;;;;;;10492995;28;20062;-54
2020/12/08 04:07:13;;;;;;;14.13;4.32;;;2.50;99.90;;;;;;10486386;28;20563;-54
2020/12/08 04:12:34;;;;;;;11.07;4.35;;;2.40;99.90;;;;;;10489370;28;20043;-54
2020/12/08 04:17:55;;;;;;;8.98;3.38;;;2.30;99.90;;;;;;10489895;28;20032;-53
2020/12/08 04:23:18;;;;;;;11.00;3.55;;;2.40;99.90;;;;;;10493385;28;20500;-53
2020/12/08 04:28:39;;;;;;;9.27;3.30;;;2.50;99.90;;;;;;10474715;28;20062;-53
2020/12/08 04:34:00;;;;;;;9.98;3.63;;;2.60;99.90;;;;;;10472049;28;20395;-53
2020/12/08 04:39:21;;;;;;;9.80;3.60;;;2.60;99.90;;;;;;10491001;28;20484;-53
2020/12/08 04:44:43;;;;;;;10.70;2.83;;;2.70;99.90;;;;;;10471333;28;20039;-53
2020/12/08 04:50:04;;;;;;;6.07;2.90;;;2.80;99.90;;;;;;10488815;28;20091;-53
2020/12/08 04:55:26;;;;;;;7.95;3.45;;;2.80;99.90;;;;;;10487997;28;20036;-53
2020/12/08 05:00:47;;;;;;;7.15;3.30;;;2.90;99.90;;;;;;10494709;28;20033;-54
2020/12/08 05:06:14;;;;;;;9.75;2.60;;;2.90;99.90;;;;;;10486569;28;20099;-54
2020/12/08 05:11:35;;;;;;;6.35;2.25;;;2.90;99.90;;;;;;10486889;28;20075;-54
2020/12/08 05:17:03;;;;;;;15.02;3.97;;;2.90;99.90;;;;;;10482656;28;20088;-54
2020/12/08 05:22:24;;;;;;;8.85;3.10;;;2.80;99.90;;;;;;10487207;28;20114;-54
2020/12/08 05:27:48;;;;;;;6.88;3.13;;;2.90;99.90;;;;;;10484650;28;20051;-54
2020/12/08 05:33:15;;;;;;;9.45;4.28;;;2.90;99.90;;;;;;10489283;28;20033;-54
2020/12/08 05:38:38;;;;;;;8.43;3.25;;;2.80;99.90;;;;;;10491942;28;20511;-54
2020/12/08 05:44:04;;;;;;;9.35;4.30;;;2.80;99.90;;;;;;10452374;28;20083;-53
2020/12/08 05:49:25;;;;;;;4.18;2.03;;;2.70;99.90;;;;;;10453986;28;20040;-54
2020/12/08 05:54:46;;;;;;;4.93;2.88;;;2.60;99.90;;;;;;10487574;28;20612;-54
2020/12/08 06:00:21;;;;;;;9.75;2.92;;;2.50;99.90;;;;;;10459393;28;20682;-53
2020/12/08 06:05:46;;;;;;;5.18;2.13;;;2.50;99.90;;;;;;10435707;28;20095;-54
2020/12/08 06:11:07;;;;;;;5.65;2.47;;;2.40;99.90;;;;;;10461264;28;20033;-54
2020/12/08 06:16:28;;;;;;;7.35;3.30;;;2.30;99.90;;;;;;10466443;28;20090;-53
2020/12/08 06:21:49;;;;;;;5.93;2.00;;;2.10;99.90;;;;;;10467793;28;20048;-53
2020/12/08 06:27:10;;;;;;;7.03;2.22;;;2.00;99.90;;;;;;10468662;28;20028;-54
2020/12/08 06:32:31;;;;;;;5.13;3.05;;;1.90;99.90;;;;;;10469246;28;20044;-53
2020/12/08 06:37:54;;;;;;;7.10;3.22;;;1.90;99.90;;;;;;10455261;28;20090;-53
2020/12/08 06:43:15;;;;;;;9.68;3.47;;;1.80;99.90;;;;;;10466790;28;20047;-54
2020/12/08 06:48:38;;;;;;;4.25;1.77;;;1.70;99.90;;;;;;10466857;28;20075;-53
2020/12/08 06:54:10;;;;;;;7.28;2.45;;;1.60;99.90;;;;;;10467809;28;20029;-53
2020/12/08 06:59:31;;;;;;;15.77;3.53;;;1.60;99.90;;;;;;10471232;28;20033;-53
2020/12/08 07:04:53;;;;;;;5.57;1.88;;;1.70;99.90;;;;;;10480723;28;20052;-54
2020/12/08 07:10:15;;;;;;;4.90;2.80;;;1.70;99.90;;;;;;10472322;28;20032;-53
2020/12/08 07:15:36;;;;;;;7.15;2.53;;;1.70;99.90;;;;;;10473203;28;20079;-54
2020/12/08 07:20:57;;;;;;;6.68;2.88;;;1.80;99.90;;;;;;10483837;28;20440;-53
2020/12/08 07:26:25;;;;;;;11.05;3.22;;;2.00;99.90;;;;;;10503166;28;20036;-54
2020/12/08 07:31:46;;;;;;;10.03;2.70;;;2.00;99.90;;;;;;10505963;28;20032;-53
2020/12/08 07:37:16;;;;;;;11.90;2.67;;;2.10;99.90;;;;;;10502806;28;20385;-54
2020/12/08 07:42:37;;;;;;;8.30;2.13;;;2.20;99.90;;;;;;10508198;28;20044;-53
2020/12/08 07:48:00;;;;;;;7.22;2.90;;;2.20;99.90;;;;;;10502216;28;20047;-53
2020/12/08 07:53:21;;;;;;;13.48;3.63;;;2.30;99.90;;;;;;10505367;28;20488;-54
2020/12/08 07:58:42;;;;;;;7.47;3.25;;;2.40;99.90;;;;;;10500097;28;20123;-54
2020/12/08 08:04:03;;;;;;;5.57;2.22;;;2.50;99.90;;;;;;10503835;28;20044;-54
2020/12/08 08:09:24;;;;;;;8.57;2.67;;;2.50;99.90;;;;;;10505336;28;20501;-54
2020/12/08 08:14:45;;;;;;;6.80;3.75;;;2.50;99.90;;;;;;10504251;28;20032;-53
2020/12/08 08:20:06;;;;;;;11.15;2.20;;;2.50;99.90;;;;;;10501989;28;20372;-53
2020/12/08 08:25:27;;;;;;;8.55;2.15;;;2.50;99.90;;;;;;10495613;28;20081;-54
2020/12/08 08:30:48;;;;;;;14.23;3.88;;;2.40;99.90;;;;;;10514676;28;20063;-53
2020/12/08 08:36:09;;;;;;;10.00;4.20;;;2.50;99.90;;;;;;10509759;28;20032;-54
2020/12/08 08:41:30;;;;;;;8.85;2.70;;;2.40;99.90;;;;;;10513265;28;20063;-53
2020/12/08 08:46:51;;;;;;;9.48;3.25;;;2.40;99.90;;;;;;10493965;28;20430;-53
2020/12/08 08:52:12;;;;;;;8.45;2.47;;;2.50;99.90;;;;;;10511077;28;20028;-54
2020/12/08 08:57:33;;;;;;;5.40;2.83;;;2.60;99.90;;;;;;10506301;28;20047;-53
2020/12/08 09:02:58;;;;;;;10.95;2.70;;;2.60;99.90;;;;;;10509836;28;20390;-53
2020/12/08 09:08:19;;;;;;;6.82;3.22;;;2.70;99.90;;;;;;10512997;28;20064;-53
2020/12/08 09:13:40;;;;;;;7.03;2.88;;;2.70;99.90;;;;;;10513317;28;20059;-53
2020/12/08 09:19:01;;;;;;;13.93;4.55;;;2.70;99.90;;;;;;10500262;28;20113;-53
2020/12/08 09:24:22;;;;;;;10.25;3.00;;;2.70;99.90;;;;;;10437555;28;20179;-53
2020/12/08 09:29:43;;;;;;;5.00;2.92;;;2.80;99.90;;;;;;10435655;28;20549;-54
2020/12/08 09:35:04;;;;;;;10.32;3.63;;;2.80;99.90;;;;;;10439873;28;20098;-53
2020/12/08 09:40:26;;;;;;;13.18;3.08;;;2.80;99.90;;;;;;10435856;28;20052;-53
2020/12/08 09:45:47;;;;;;;10.98;4.57;;;2.90;99.90;;;;;;10433762;28;20040;-54
2020/12/08 09:51:08;;;;;;;8.93;2.97;;;2.90;99.90;;;;;;10438420;28;20033;-53
2020/12/08 09:56:29;;;;;;;12.88;4.03;;;3.00;99.90;;;;;;10435468;28;20064;-54
2020/12/08 10:01:50;;;;;;;7.32;2.53;;;3.10;99.90;;;;;;10436350;28;20029;-53
2020/12/08 10:07:15;;;;;;;10.70;3.25;;;3.10;99.90;;;;;;10422792;28;20452;-53
2020/12/08 10:12:35;;;;;;;12.25;3.92;;;3.30;99.90;;;;;;10436464;28;20245;-53
2020/12/08 10:17:56;;;;;;;10.95;3.80;;;3.20;99.90;;;;;;10432479;28;20047;-54
2020/12/08 10:23:17;;;;;;;10.05;3.90;;;3.20;99.90;;;;;;10466244;28;20529;-53
2020/12/08 10:28:39;;;;;;;11.95;3.80;;;3.30;99.90;;;;;;10495265;28;20056;-54
2020/12/08 10:34:00;;;;;;;12.48;5.40;;;3.30;99.90;;;;;;10492924;28;20544;-54
2020/12/08 10:39:21;;;;;;;9.38;3.17;;;3.30;99.90;;;;;;10503698;28;20376;-54
2020/12/08 10:44:42;;;;;;;11.98;4.03;;;3.40;99.90;;;;;;10485168;28;20119;-54
2020/12/08 10:50:04;;;;;;;12.70;3.05;;;3.50;99.90;;;;;;10499691;28;20031;-54
2020/12/08 10:55:24;;;;;;;9.50;4.55;;;3.60;99.90;;;;;;10485525;28;20028;-53
2020/12/08 11:00:45;;;;;;;8.57;3.78;;;3.80;99.90;;;;;;10482539;28;20040;-53
2020/12/08 11:06:06;;;;;;;12.15;4.30;;;3.90;99.90;;;;;;10496452;28;20699;-53
2020/12/08 11:11:30;;;;;;;13.93;4.68;;;4.00;99.90;;;;;;10504875;28;20059;-54
2020/12/08 11:16:51;;;;;;;10.10;3.72;;;4.20;99.90;;;;;;10487858;28;20068;-54
2020/12/08 11:22:12;;;;;;;12.05;5.05;;;4.30;99.90;;;;;;10465028;28;20524;-54
2020/12/08 11:27:33;;;;;;;10.52;3.15;;;4.40;99.90;;;;;;10454239;28;20086;-54
2020/12/08 11:32:54;;;;;;;10.88;3.83;;;4.50;99.90;;;;;;10458881;28;20472;-54
2020/12/08 11:38:15;;;;;;;10.77;4.00;;;4.60;99.90;;;;;;10451603;28;20036;-54
2020/12/08 11:43:37;;;;;;;11.55;4.95;;;4.60;99.90;;;;;;10455016;28;20070;-54
2020/12/08 11:48:57;;;;;;;10.60;4.28;;;4.70;99.90;;;;;;10459546;28;20038;-53
2020/12/08 11:54:19;;;;;;;7.05;3.00;;;4.80;99.90;;;;;;10456670;28;20045;-54
2020/12/08 11:59:39;;;;;;;7.53;4.00;;;4.90;99.90;;;;;;10467066;28;20136;-54
2020/12/08 12:05:01;;;;;;;9.93;3.88;;;5.00;99.90;;;;;;10473808;28;20052;-54
2020/12/08 12:10:22;;;;;;;10.70;3.25;;;5.10;99.90;;;;;;10472920;28;20079;-56
2020/12/08 12:15:43;;;;;;;9.60;3.92;;;5.10;99.90;;;;;;10471711;28;20042;-54
2020/12/08 12:21:04;;;;;;;7.43;3.38;;;5.20;99.90;;;;;;10489715;28;20105;-54
2020/12/08 12:26:25;;;;;;;8.63;3.67;;;5.30;99.90;;;;;;10515274;28;20499;-56
2020/12/08 12:31:47;;;;;;;6.85;3.42;;;5.30;99.90;;;;;;10513701;28;20127;-56
2020/12/08 12:37:08;;;;;;;5.22;2.72;;;5.40;99.90;;;;;;10507011;28;20039;-56
2020/12/08 12:42:30;;;;;;;6.03;2.65;;;5.40;99.90;;;;;;10495808;28;20048;-54
2020/12/08 12:47:51;;;;;;;9.45;2.97;;;5.40;99.90;;;;;;10495896;28;20037;-54
2020/12/08 12:53:12;;;;;;;8.50;3.53;;;5.40;99.90;;;;;;10493539;28;20032;-54
2020/12/08 12:58:33;;;;;;;12.63;4.07;;;5.40;99.90;;;;;;10500266;28;20042;-54
2020/12/08 13:03:54;;;;;;;10.35;4.53;;;5.50;99.90;;;;;;10498325;28;20046;-54
2020/12/08 13:09:15;;;;;;;7.57;2.75;;;5.60;99.90;;;;;;10498008;28;20033;-54
2020/12/08 13:14:36;;;;;;;7.93;2.97;;;5.80;99.90;;;;;;10498710;28;20041;-54
2020/12/08 13:19:57;;;;;;;7.78;3.20;;;6.00;99.90;;;;;;10478587;28;20047;-54
2020/12/08 13:25:18;;;;;;;7.00;2.35;;;6.30;99.90;;;;;;10494471;28;20127;-54
2020/12/08 13:30:39;;;;;;;7.47;3.13;;;6.20;99.90;;;;;;10497919;28;20035;-54
2020/12/08 13:36:01;;;;;;;12.68;4.50;;;6.10;99.90;;;;;;10498794;28;20417;-54
2020/12/08 13:41:22;;;;;;;9.02;3.25;;;5.90;99.90;;;;;;10492271;28;20056;-54
2020/12/08 13:46:43;;;;;;;9.85;3.72;;;5.90;99.90;;;;;;10496761;28;20047;-54
2020/12/08 13:52:04;;;;;;;6.07;3.15;;;5.80;99.90;;;;;;10495333;28;20131;-55
2020/12/08 13:57:25;;;;;;;11.95;3.80;;;5.80;99.90;;;;;;10492437;28;20470;-54
2020/12/08 14:02:46;;;;;;;7.63;2.90;;;5.70;99.90;;;;;;10496502;28;20101;-54
2020/12/08 14:08:08;;;;;;;8.70;2.88;;;5.50;99.90;;;;;;10496617;28;20732;-54
2020/12/08 14:13:29;;;;;;;7.68;3.28;;;5.50;99.90;;;;;;10501240;28;20036;-57
2020/12/08 14:18:50;;;;;;;6.07;3.15;;;5.40;99.90;;;;;;10493322;28;20051;-56
2020/12/08 14:24:19;;;;;;;8.52;3.08;;;5.30;99.90;;;;;;10491752;28;20059;-56
2020/12/08 14:29:40;;;;;;;;;;;5.30;99.90;;;;;;10496402;28;20040;-56
2020/12/08 14:35:01;;;;;;;10.90;3.05;;;5.30;99.90;;;;;;10489882;28;19912;-56
2020/12/08 14:40:22;;;;;;;7.38;2.78;;;5.20;99.90;;;;;;10479759;28;20037;-56
2020/12/08 14:45:43;;;;;;;7.55;3.50;;;5.20;99.90;;;;;;10493885;28;20032;-56
2020/12/08 14:51:04;;;;;;;10.05;4.03;;;5.10;99.90;;;;;;10494365;28;20428;-56
2020/12/08 14:56:26;;;;;;;10.13;2.42;;;5.00;99.90;;;;;;10487674;28;20514;-56
2020/12/08 15:01:47;;;;;;;15.13;3.75;;;5.00;99.90;;;;;;10495859;28;20438;-56
2020/12/08 15:07:08;;;;;;;5.78;2.78;;;5.00;99.90;;;;;;10481523;28;20053;-56
2020/12/08 15:12:29;;;;;;;7.05;2.72;;;4.90;99.90;;;;;;10492862;28;20039;-56
2020/12/08 15:17:50;;;;;;;8.77;3.03;;;4.90;99.90;;;;;;10501287;28;20032;-56
2020/12/08 15:23:11;;;;;;;11.20;3.80;;;4.80;99.90;;;;;;10495348;28;20043;-56
2020/12/08 15:28:32;;;;;;;7.85;3.70;;;4.70;99.90;;;;;;10494325;28;20040;-56
2020/12/08 15:33:53;;;;;;;11.13;3.22;;;4.60;99.90;;;;;;10500534;28;20051;-54
2020/12/08 15:39:14;;;;;;;7.70;2.85;;;4.50;99.90;;;;;;10496441;28;20036;-54
2020/12/08 15:44:35;;;;;;;7.07;2.67;;;4.40;99.90;;;;;;10494305;28;20044;-54
2020/12/08 15:50:05;;;;;;;6.10;2.70;;;4.20;99.90;;;;;;10494546;28;20072;-54
2020/12/08 15:55:26;;;;;;;12.82;3.83;;;4.10;99.90;;;;;;10492467;28;20137;-54
2020/12/08 16:00:47;;;;;;;9.10;2.97;;;4.00;99.90;;;;;;10497917;28;20043;-54
2020/12/08 16:06:09;;;;;;;10.85;3.63;;;3.90;99.90;;;;;;10490488;28;20052;-54
2020/12/08 16:11:30;;;;;;;8.63;2.42;;;3.90;99.90;;;;;;10498478;28;20059;-54
2020/12/08 16:16:51;;;;;;;8.32;3.58;;;3.90;99.90;;;;;;10495762;28;20036;-54
2020/12/08 16:22:12;;;;;;;9.73;3.63;;;4.00;99.90;;;;;;10495278;28;20056;-54
2020/12/08 16:27:33;;;;;;;7.43;3.33;;;4.00;99.90;;;;;;10497062;28;20036;-54
2020/12/08 16:33:06;;;;;;;6.03;2.80;;;4.00;99.90;;;;;;10489348;28;20062;-54
2020/12/08 16:38:27;;;;;;;11.80;3.90;;;4.10;99.90;;;;;;10499827;28;20044;-54
2020/12/08 16:43:48;;;;;;;9.52;3.30;;;4.10;99.90;;;;;;10499640;28;20081;-54
2020/12/08 16:49:09;;;;;;;6.82;3.05;;;4.10;99.90;;;;;;10497680;28;20388;-54
2020/12/08 16:54:30;;;;;;;7.55;3.85;;;4.10;99.90;;;;;;10495636;28;20044;-54
2020/12/08 16:59:51;;;;;;;9.02;3.65;;;4.10;99.90;;;;;;10496173;28;20056;-54
2020/12/08 17:05:12;;;;;;;7.20;3.38;;;4.10;99.90;;;;;;10500899;28;20052;-54
2020/12/08 17:10:33;;;;;;;12.48;4.40;;;4.10;99.90;;;;;;10494556;28;20037;-54
2020/12/08 17:15:54;;;;;;;10.63;4.20;;;4.10;99.90;;;;;;10500235;28;20036;-54
2020/12/08 17:21:15;;;;;;;5.38;3.03;;;4.10;99.90;;;;;;10498293;28;20048;-54
2020/12/08 17:26:37;;;;;;;11.50;4.93;;;4.20;99.90;;;;;;10494092;28;20033;-55
2020/12/08 17:31:58;;;;;;;17.17;5.25;;;4.20;99.90;;;;;;10498320;28;20032;-54
2020/12/08 17:37:19;;;;;;;9.35;3.35;;;4.20;99.90;;;;;;10498101;28;20188;-54
2020/12/08 17:42:42;;;;;;;10.32;5.05;;;4.30;99.90;;;;;;10489315;28;20068;-54
2020/12/08 17:48:04;;;;;;;11.23;4.50;;;4.20;99.90;;;;;;10475683;28;20043;-54
2020/12/08 17:53:25;;;;;;;13.35;5.82;;;4.30;99.90;;;;;;10472003;28;20145;-54
2020/12/08 17:58:45;;;;;;;8.57;4.70;;;4.30;99.90;;;;;;10469146;28;20036;-54
2020/12/08 18:04:06;;;;;;;13.90;4.65;;;4.30;99.90;;;;;;10480220;28;20058;-54
2020/12/08 18:09:27;;;;;;;8.00;4.03;;;4.30;99.90;;;;;;10466452;28;20447;-54
2020/12/08 18:14:48;;;;;;;10.63;3.13;;;4.30;99.90;;;;;;10472955;28;20219;-55
2020/12/08 18:20:11;;;;;;;12.55;4.55;;;4.30;99.90;;;;;;10473489;28;20032;-55
2020/12/08 18:25:33;;;;;;;12.25;4.90;;;4.40;99.90;;;;;;10464368;28;20055;-54
2020/12/08 18:30:54;;;;;;;13.20;5.53;;;4.40;99.90;;;;;;10467169;28;20044;-54
2020/12/08 18:36:16;;;;;;;8.38;3.25;;;4.30;99.90;;;;;;10465870;28;20047;-54
2020/12/08 18:41:37;;;;;;;10.90;4.65;;;4.30;99.90;;;;;;10473915;28;20074;-54
2020/12/08 18:46:59;;;;;;;14.13;6.28;;;4.30;99.90;;;;;;10461277;28;20127;-54
2020/12/08 18:52:20;;;;;;;13.10;5.60;;;4.20;99.90;;;;;;10484600;28;20036;-54
2020/12/08 18:57:42;;;;;;;10.50;4.25;;;4.20;99.90;;;;;;10487450;28;20583;-55
2020/12/08 19:03:03;;;;;;;10.95;4.57;;;4.20;99.90;;;;;;10486701;28;20212;-54
2020/12/08 19:08:24;;;;;;;11.90;4.03;;;4.10;99.90;;;;;;10480857;28;20147;-54
2020/12/08 19:13:45;;;;;;;12.98;4.45;;;4.10;99.90;;;;;;10485436;28;20064;-54
2020/12/08 19:19:06;;;;;;;10.38;4.70;;;4.00;99.90;;;;;;10476639;28;20051;-54
2020/12/08 19:24:27;;;;;;;8.77;3.90;;;4.10;99.90;;;;;;10488586;28;20036;-55
2020/12/08 19:29:48;;;;;;;14.30;3.33;;;4.20;99.90;;;;;;10493885;28;20036;-55
2020/12/08 19:35:10;;;;;;;11.80;3.97;;;4.20;99.90;;;;;;10475105;28;20083;-54
2020/12/08 19:40:33;;;;;;;9.25;4.38;;;4.20;99.90;;;;;;10490370;28;20044;-54
2020/12/08 19:45:53;;;;;;;13.38;5.05;;;4.20;99.90;;;;;;10492540;28;20572;-54
2020/12/08 19:51:14;;;;;;;11.60;4.35;;;4.10;99.90;;;;;;10489312;28;20532;-55
2020/12/08 19:56:44;;;;;;;12.43;4.95;;;4.10;99.90;;;;;;10471823;28;20506;-54
2020/12/08 20:02:05;;;;;;;;;;;4.00;99.90;;;;;;10491781;28;20079;-55
2020/12/08 20:07:26;;;;;;;15.23;5.25;;;4.00;99.90;;;;;;10479879;28;19942;-55
2020/12/08 20:12:47;;;;;;;11.13;5.15;;;4.00;99.90;;;;;;10485084;28;20028;-54
2020/12/08 20:18:08;;;;;;;10.80;4.43;;;3.90;99.90;;;;;;10484910;28;20037;-54
2020/12/08 20:23:29;;;;;;;15.98;5.43;;;3.90;99.90;;;;;;10479055;28;20485;-54
2020/12/08 20:28:50;;;;;;;12.32;4.82;;;3.90;99.90;;;;;;10487135;28;20034;-55
2020/12/08 20:34:11;;;;;;;10.05;5.43;;;3.90;99.90;;;;;;10486388;28;20032;-55
2020/12/08 20:39:32;;;;;;;16.77;5.65;;;3.90;99.90;;;;;;10490971;28;20408;-54
2020/12/08 20:44:53;;;;;;;16.42;5.03;;;3.90;99.90;;;;;;10488184;28;20468;-54
2020/12/08 20:50:14;;;;;;;14.23;5.28;;;3.90;99.90;;;;;;10474003;28;20124;-54
2020/12/08 20:55:35;;;;;;;16.35;6.15;;;4.00;99.90;;;;;;10473694;28;20040;-54
2020/12/08 21:01:00;;;;;;;14.50;5.65;;;4.00;99.90;;;;;;10477111;28;20202;-54
2020/12/08 21:06:21;;;;;;;15.52;5.07;;;4.00;99.90;;;;;;10454400;28;20036;-54
2020/12/08 21:11:43;;;;;;;15.07;5.10;;;4.00;99.90;;;;;;10466169;28;20583;-54
2020/12/08 21:17:04;;;;;;;16.60;5.28;;;4.10;99.90;;;;;;10456525;28;20454;-54
2020/12/08 21:22:26;;;;;;;9.25;4.18;;;4.00;99.90;;;;;;10456548;28;20036;-54
2020/12/08 21:27:47;;;;;;;9.65;4.05;;;4.10;99.90;;;;;;10476925;28;20032;-54
2020/12/08 21:33:08;;;;;;;15.23;5.43;;;4.10;99.90;;;;;;10471556;28;20032;-54
2020/12/08 21:38:29;;;;;;;17.95;6.68;;;4.10;99.90;;;;;;10471914;28;20522;-54
2020/12/08 21:43:51;;;;;;;10.23;5.07;;;4.00;99.90;;;;;;10467019;28;20348;-55
2020/12/08 21:49:12;;;;;;;11.48;4.70;;;4.20;99.90;;;;;;10476254;28;20440;-54
2020/12/08 21:54:33;;;;;;;13.95;5.50;;;4.20;99.90;;;;;;10468802;28;20067;-54
2020/12/08 21:59:54;;;;;;;15.60;4.93;;;4.10;99.90;;;;;;10472715;28;20051;-54
2020/12/08 22:05:15;;;;;;;8.70;3.65;;;4.10;99.90;;;;;;10458487;28;20044;-54
2020/12/08 22:10:36;;;;;;;11.63;5.68;;;4.10;99.90;;;;;;10470567;28;20097;-55
2020/12/08 22:15:58;;;;;;;13.10;5.25;;;4.10;99.90;;;;;;10478055;28;21917;-54
2020/12/08 22:21:19;;;;;;;9.77;3.45;;;4.10;99.90;;;;;;10472056;28;20047;-54
2020/12/08 22:26:40;;;;;;;11.27;4.78;;;4.10;99.90;;;;;;10469820;28;20067;-54
2020/12/08 22:32:02;;;;;;;11.57;5.03;;;4.10;99.90;;;;;;10481233;28;20067;-54
2020/12/08 22:37:23;;;;;;;16.98;5.13;;;4.10;99.90;;;;;;10467802;28;20114;-54
2020/12/08 22:42:46;;;;;;;9.02;5.22;;;4.10;99.90;;;;;;10463712;28;20497;-54
2020/12/08 22:48:07;;;;;;;10.95;5.10;;;4.10;99.90;;;;;;10479849;28;20188;-54
2020/12/08 22:53:28;;;;;;;13.18;4.53;;;4.10;99.90;;;;;;10468984;28;20059;-54
2020/12/08 22:58:49;;;;;;;9.15;5.30;;;4.10;99.90;;;;;;10479859;28;20109;-54
2020/12/08 23:04:10;;;;;;;16.45;5.53;;;4.10;99.90;;;;;;10478514;28;20152;-54
2020/12/08 23:09:31;;;;;;;16.42;5.50;;;4.20;99.90;;;;;;10477236;28;20437;-54
2020/12/08 23:14:54;;;;;;;10.38;3.92;;;4.20;99.90;;;;;;10478875;28;20037;-54
2020/12/08 23:20:19;;;;;;;11.07;5.65;;;4.20;99.90;;;;;;10479945;28;20099;-54
2020/12/08 23:25:41;;;;;;;12.68;5.15;;;4.20;99.90;;;;;;10473941;28;20483;-54
2020/12/08 23:31:02;;;;;;;9.57;4.18;;;4.20;99.90;;;;;;10477579;28;20048;-54
2020/12/08 23:36:23;;;;;;;22.17;6.70;;;4.20;99.90;;;;;;10471164;28;20471;-54
2020/12/08 23:41:50;;;;;;;12.13;4.78;;;4.20;99.90;;;;;;10485071;28;20404;-54
2020/12/08 23:47:11;;;;;;;19.75;5.07;;;4.30;99.90;;;;;;10480760;28;20040;-54
2020/12/08 23:52:36;;;;;;;14.95;4.78;;;4.30;99.90;;;;;;10488648;28;20167;-54
2020/12/08 23:58:01;;;;;;;10.20;5.15;;;4.30;99.90;;;;;;10481349;28;20032;-54
